Time;durP1;ratioP1;P1;durP2;ratioP2;P2;SDS_P1;SDS_P2;PMS_P1;PMS_P2;Temp;Humidity;BMP_temperature;BMP_pressure;BME280_temperature;BME280_humidity;BME280_pressure;Samples;Min_cycle;Max_cycle;Signal;HPM_P1;HPM_P2
2021/04/27 00:05:28;;;;;;;7.78;4.57;;;9.10;83.20;;;;;;20914173;28;20089;-76
2021/04/27 00:15:32;;;;;;;11.13;4.27;;;9.30;82.20;;;;;;20912651;28;20501;-75
2021/04/27 00:25:33;;;;;;;8.82;4.95;;;9.00;83.60;;;;;;20912937;28;20048;-75
2021/04/27 00:35:35;;;;;;;11.20;4.33;;;9.10;82.80;;;;;;20911745;28;20376;-75
2021/04/27 00:45:35;;;;;;;10.75;4.70;;;9.00;82.70;;;;;;20909674;28;20029;-75
2021/04/27 00:55:37;;;;;;;10.30;4.13;;;8.80;83.30;;;;;;20909571;28;20040;-75
2021/04/27 01:05:39;;;;;;;;;;;8.80;83.60;;;;;;20909873;28;20456;-75
2021/04/27 01:15:41;;;;;;;15.00;4.78;;;8.80;83.70;;;;;;20907493;28;19991;-75
2021/04/27 01:25:46;;;;;;;7.95;4.28;;;8.60;84.30;;;;;;20906688;28;20151;-75
2021/04/27 01:35:48;;;;;;;8.07;4.60;;;8.50;84.80;;;;;;20907481;28;20032;-75
2021/04/27 01:45:54;;;;;;;9.63;5.10;;;8.40;85.10;;;;;;20905902;28;20033;-75
2021/04/27 01:55:55;;;;;;;8.50;4.68;;;8.40;85.10;;;;;;20889346;28;20558;-75
2021/04/27 02:05:56;;;;;;;8.37;4.97;;;8.30;85.70;;;;;;20905221;28;20040;-75
2021/04/27 02:16:03;;;;;;;8.90;4.57;;;8.30;86.00;;;;;;20920808;28;20051;-75
2021/04/27 02:26:04;;;;;;;7.03;4.50;;;8.20;86.30;;;;;;20920573;28;20087;-75
2021/04/27 02:36:15;;;;;;;9.43;5.07;;;8.00;87.30;;;;;;20920241;28;20039;-75
2021/04/27 02:46:29;;;;;;;10.02;5.28;;;7.80;88.50;;;;;;20919137;28;20449;-75
2021/04/27 02:56:36;;;;;;;10.18;4.88;;;7.50;89.90;;;;;;20918609;28;20099;-75
2021/04/27 03:06:37;;;;;;;12.45;5.30;;;7.50;90.00;;;;;;20933298;22;20143;-84
2021/04/27 03:16:48;;;;;;;8.30;4.85;;;7.00;93.10;;;;;;20923107;23;20041;-76
2021/04/27 03:26:49;;;;;;;19.47;4.53;;;6.50;93.90;;;;;;20915532;28;20032;-76
2021/04/27 03:37:08;;;;;;;12.00;5.40;;;6.60;93.90;;;;;;20916880;28;20037;-76
2021/04/27 03:47:10;;;;;;;12.23;5.00;;;6.30;94.60;;;;;;20915435;28;20496;-76
2021/04/27 03:57:12;;;;;;;;;;;6.30;94.80;;;;;;20914417;28;20036;-76
2021/04/27 04:07:31;;;;;;;9.68;4.93;;;6.10;96.70;;;;;;20913018;28;19919;-76
2021/04/27 04:17:41;;;;;;;11.93;6.38;;;5.30;99.00;;;;;;20913589;28;20044;-76
2021/04/27 04:27:43;;;;;;;9.15;3.50;;;5.70;99.90;;;;;;20853943;28;20029;-77
2021/04/27 04:37:48;;;;;;;15.25;6.18;;;5.40;99.90;;;;;;20811649;28;20573;-76
2021/04/27 04:48:08;;;;;;;13.27;5.60;;;5.10;99.90;;;;;;20828646;28;20057;-77
2021/04/27 04:58:27;;;;;;;14.57;6.03;;;5.30;99.90;;;;;;20828988;28;20037;-76
2021/04/27 05:08:43;;;;;;;10.38;5.88;;;5.40;99.90;;;;;;20826790;28;20025;-76
2021/04/27 05:19:03;;;;;;;14.90;7.13;;;5.50;99.90;;;;;;20826209;28;20415;-76
2021/04/27 05:29:04;;;;;;;9.67;5.53;;;5.70;99.90;;;;;;20824449;28;20075;-76
2021/04/27 05:39:05;;;;;;;15.13;6.50;;;6.20;99.90;;;;;;20825245;28;20029;-76
2021/04/27 05:49:07;;;;;;;5.40;3.50;;;6.70;99.90;;;;;;20830336;28;20025;-82
2021/04/27 05:59:07;;;;;;;14.90;5.80;;;7.30;99.90;;;;;;20877844;28;20085;-80
2021/04/27 06:09:09;;;;;;;9.13;5.33;;;8.20;99.90;;;;;;20856804;28;20040;-79
2021/04/27 06:19:10;;;;;;;11.67;6.10;;;8.90;99.90;;;;;;20826258;28;20116;-79
2021/04/27 06:29:11;;;;;;;10.90;5.45;;;9.60;99.90;;;;;;20830414;28;20507;-79
2021/04/27 06:39:12;;;;;;;8.90;5.03;;;10.10;99.90;;;;;;20829542;28;20492;-79
2021/04/27 06:49:13;;;;;;;11.20;5.40;;;10.30;99.90;;;;;;20826347;28;20048;-79
2021/04/27 06:59:16;;;;;;;8.93;4.25;;;11.10;99.90;;;;;;20834196;28;20033;-79
2021/04/27 07:09:17;;;;;;;10.20;4.78;;;11.80;93.00;;;;;;20838190;28;20034;-79
2021/04/27 07:19:18;;;;;;;9.23;4.18;;;12.40;93.40;;;;;;20838304;28;20508;-79
2021/04/27 07:29:19;;;;;;;15.95;5.70;;;12.70;90.10;;;;;;20839148;28;20040;-77
2021/04/27 07:39:20;;;;;;;7.07;4.78;;;13.10;89.20;;;;;;20859190;28;20029;-77
2021/04/27 07:49:21;;;;;;;7.90;4.27;;;13.40;87.10;;;;;;20877339;28;20049;-77
2021/04/27 07:59:22;;;;;;;7.70;4.17;;;13.60;83.50;;;;;;20811134;28;20034;-77
2021/04/27 08:09:23;;;;;;;11.55;4.38;;;14.10;85.60;;;;;;20811775;28;20037;-77
2021/04/27 08:19:24;;;;;;;6.78;4.30;;;14.60;80.70;;;;;;20811080;28;20032;-77
2021/04/27 08:29:25;;;;;;;8.57;4.63;;;15.20;81.30;;;;;;20855322;28;20029;-78
2021/04/27 08:39:26;;;;;;;10.18;4.57;;;14.60;84.20;;;;;;20836361;28;20083;-78
2021/04/27 08:49:27;;;;;;;9.83;5.27;;;16.10;80.30;;;;;;20886225;28;20043;-77
2021/04/27 08:59:28;;;;;;;16.27;5.25;;;16.90;74.10;;;;;;20888718;28;20029;-78
2021/04/27 09:09:46;;;;;;;11.55;4.72;;;17.00;79.00;;;;;;20884835;28;20064;-78
2021/04/27 09:19:48;;;;;;;12.63;5.15;;;17.80;74.80;;;;;;20884143;28;20495;-78
2021/04/27 09:29:48;;;;;;;;;;;18.10;71.70;;;;;;20821829;28;20108;-77
2021/04/27 09:39:51;;;;;;;10.13;6.00;;;18.50;69.70;;;;;;20801958;28;19919;-77
2021/04/27 09:49:55;;;;;;;9.10;5.18;;;18.80;68.90;;;;;;20800586;28;20120;-78
2021/04/27 10:00:18;;;;;;;11.40;6.28;;;19.50;67.00;;;;;;20800241;28;20041;-78
2021/04/27 10:10:20;;;;;;;11.55;5.85;;;20.00;66.40;;;;;;20800962;28;20045;-78
2021/04/27 10:20:21;;;;;;;11.63;6.23;;;19.90;66.30;;;;;;20801637;28;20373;-78
2021/04/27 10:30:27;;;;;;;12.57;6.20;;;20.00;63.80;;;;;;20856553;28;20041;-78
2021/04/27 10:40:51;;;;;;;9.65;6.22;;;21.10;65.10;;;;;;20897817;28;20135;-78
2021/04/27 10:50:52;;;;;;;8.30;5.57;;;21.20;65.80;;;;;;20897061;28;20393;-78
2021/04/27 11:00:52;;;;;;;12.70;6.43;;;21.60;66.50;;;;;;20901300;28;20033;-79
2021/04/27 11:10:53;;;;;;;14.10;6.60;;;20.60;66.80;;;;;;20893682;28;20064;-78
2021/04/27 11:20:56;;;;;;;11.83;6.60;;;21.80;62.70;;;;;;20893719;28;20048;-77
2021/04/27 11:31:15;;;;;;;8.82;5.38;;;21.30;66.30;;;;;;20836528;28;20419;-78
2021/04/27 11:41:16;;;;;;;8.85;5.95;;;20.70;65.70;;;;;;20810089;28;20571;-79
2021/04/27 11:51:20;;;;;;;9.77;6.10;;;20.40;69.50;;;;;;20809368;28;20033;-80
2021/04/27 12:01:22;;;;;;;11.15;6.72;;;22.30;67.60;;;;;;20870296;28;20380;-77
2021/04/27 12:11:34;;;;;;;14.10;6.60;;;22.10;62.10;;;;;;20895772;28;20037;-76
2021/04/27 12:21:47;;;;;;;12.00;6.23;;;20.90;65.10;;;;;;20891398;28;20058;-77
2021/04/27 12:31:48;;;;;;;10.48;5.47;;;22.00;63.20;;;;;;20845262;28;20299;-77
2021/04/27 12:41:51;;;;;;;13.03;5.37;;;22.00;62.90;;;;;;20826366;28;20037;-77
2021/04/27 12:52:07;;;;;;;8.13;5.63;;;22.70;60.70;;;;;;20888356;28;20044;-77
2021/04/27 13:02:17;;;;;;;9.82;5.38;;;22.60;57.60;;;;;;20892290;28;20056;-77
2021/04/27 13:12:18;;;;;;;11.80;5.45;;;22.30;57.60;;;;;;20890755;28;20407;-77
2021/04/27 13:22:21;;;;;;;9.13;5.07;;;22.50;58.50;;;;;;20886615;28;20040;-76
2021/04/27 13:32:23;;;;;;;8.35;5.32;;;22.50;61.30;;;;;;20846999;28;20164;-77
2021/04/27 13:42:24;;;;;;;10.15;4.93;;;21.90;60.60;;;;;;20853148;28;20029;-77
2021/04/27 13:52:25;;;;;;;10.23;5.27;;;22.10;58.30;;;;;;20893085;28;20033;-77
2021/04/27 14:02:26;;;;;;;7.90;5.43;;;22.60;59.20;;;;;;20874291;28;20037;-79
2021/04/27 14:12:27;;;;;;;7.63;5.20;;;22.50;57.50;;;;;;20898220;28;20499;-80
2021/04/27 14:22:28;;;;;;;7.83;5.23;;;22.20;59.20;;;;;;20893385;28;20077;-79
2021/04/27 14:32:29;;;;;;;9.40;6.20;;;22.60;58.70;;;;;;20895376;28;20048;-80
2021/04/27 14:42:30;;;;;;;11.27;5.63;;;22.60;58.80;;;;;;20898457;28;20029;-78
2021/04/27 14:52:30;;;;;;;9.60;5.77;;;22.50;56.90;;;;;;20865643;28;20036;-80
2021/04/27 15:02:31;;;;;;;7.93;5.43;;;22.80;58.20;;;;;;20832014;28;20072;-80
2021/04/27 15:12:33;;;;;;;10.20;5.17;;;22.50;58.10;;;;;;20823909;28;20140;-79
2021/04/27 15:22:35;;;;;;;6.65;4.90;;;22.60;56.50;;;;;;20896360;28;20033;-79
2021/04/27 15:32:41;;;;;;;6.90;4.35;;;22.00;60.00;;;;;;20909353;28;20045;-79
2021/04/27 15:42:42;;;;;;;11.57;5.22;;;22.10;57.70;;;;;;20894689;28;20037;-79
2021/04/27 15:52:44;;;;;;;8.43;5.40;;;22.40;57.50;;;;;;20862117;28;20117;-80
2021/04/27 16:02:46;;;;;;;8.40;5.53;;;21.20;56.80;;;;;;20855452;28;20748;-78
2021/04/27 16:12:49;;;;;;;7.20;4.20;;;20.80;56.90;;;;;;20869830;28;20032;-80
2021/04/27 16:22:50;;;;;;;9.68;4.50;;;20.70;56.00;;;;;;20874049;28;20051;-79
2021/04/27 16:32:51;;;;;;;6.30;4.03;;;20.10;55.80;;;;;;20857074;28;20464;-77
2021/04/27 16:42:52;;;;;;;7.03;3.37;;;19.70;54.40;;;;;;20833242;28;20029;-77
2021/04/27 16:52:53;;;;;;;5.60;3.38;;;19.30;53.30;;;;;;20865118;28;20283;-77
2021/04/27 17:02:54;;;;;;;13.93;3.90;;;19.20;53.90;;;;;;20899315;28;20495;-77
2021/04/27 17:12:54;;;;;;;15.50;3.63;;;19.20;55.20;;;;;;20899068;28;20025;-78
2021/04/27 17:22:55;;;;;;;3.55;2.20;;;19.30;54.70;;;;;;20828343;28;20504;-77
2021/04/27 17:32:56;;;;;;;3.67;1.77;;;19.10;55.70;;;;;;20820652;28;20045;-78
2021/04/27 17:42:57;;;;;;;4.13;2.00;;;19.00;55.70;;;;;;20818285;28;20048;-78
2021/04/27 17:52:58;;;;;;;4.10;2.33;;;18.60;56.70;;;;;;20812502;28;20029;-79
2021/04/27 18:03:00;;;;;;;9.10;2.17;;;18.00;62.60;;;;;;20805682;28;20059;-76
2021/04/27 18:13:01;;;;;;;4.53;2.08;;;17.20;68.30;;;;;;20806685;28;20029;-76
2021/04/27 18:23:03;;;;;;;5.88;1.88;;;16.30;74.00;;;;;;20826534;28;20404;-76
2021/04/27 18:33:06;;;;;;;3.92;2.30;;;15.40;78.10;;;;;;20803589;28;20053;-75
2021/04/27 18:43:07;;;;;;;6.05;3.13;;;14.80;79.30;;;;;;20804546;28;20041;-76
2021/04/27 18:53:08;;;;;;;10.43;3.38;;;14.10;79.70;;;;;;20806663;28;20678;-76
2021/04/27 19:03:09;;;;;;;6.50;2.85;;;13.20;84.10;;;;;;20815769;28;20511;-76
2021/04/27 19:13:10;;;;;;;8.50;3.85;;;12.50;86.50;;;;;;20820506;28;20028;-75
2021/04/27 19:23:12;;;;;;;6.03;3.22;;;12.00;84.90;;;;;;20893853;28;20411;-76
2021/04/27 19:33:13;;;;;;;7.43;2.80;;;11.60;88.60;;;;;;20895618;28;20467;-75
2021/04/27 19:43:17;;;;;;;9.98;4.45;;;11.70;87.20;;;;;;20850742;28;20033;-76
2021/04/27 19:53:19;;;;;;;6.40;3.67;;;11.00;90.60;;;;;;20808948;28;20043;-75
2021/04/27 20:03:19;;;;;;;7.55;3.47;;;11.10;89.60;;;;;;20807235;28;20041;-75
2021/04/27 20:13:20;;;;;;;12.80;4.13;;;10.90;90.10;;;;;;20807599;28;20048;-76
2021/04/27 20:23:23;;;;;;;8.77;2.97;;;10.80;91.30;;;;;;20811593;28;20037;-75
2021/04/27 20:33:24;;;;;;;6.05;3.13;;;10.10;93.40;;;;;;20806595;28;20558;-75
2021/04/27 20:43:25;;;;;;;8.27;3.70;;;9.80;95.10;;;;;;20805264;28;20047;-75
2021/04/27 20:53:26;;;;;;;7.80;3.70;;;9.80;96.80;;;;;;20804957;28;20034;-76
2021/04/27 21:03:28;;;;;;;8.82;3.70;;;9.30;99.60;;;;;;20907794;28;20228;-75
2021/04/27 21:13:29;;;;;;;7.50;4.00;;;9.30;99.90;;;;;;20870033;28;20600;-75
2021/04/27 21:23:31;;;;;;;9.30;4.13;;;9.10;99.90;;;;;;20861028;28;20028;-75
2021/04/27 21:33:31;;;;;;;6.53;3.88;;;8.90;99.90;;;;;;20864426;28;20025;-75
2021/04/27 21:43:32;;;;;;;7.13;4.30;;;8.60;99.90;;;;;;20863325;28;20554;-75
2021/04/27 21:53:33;;;;;;;8.47;4.30;;;8.80;99.90;;;;;;20863120;28;20021;-75
2021/04/27 22:03:34;;;;;;;7.43;4.07;;;8.50;99.90;;;;;;20869945;28;20064;-75
2021/04/27 22:13:35;;;;;;;8.23;4.53;;;8.30;99.90;;;;;;20865987;28;20491;-75
2021/04/27 22:23:36;;;;;;;12.67;5.33;;;8.00;99.90;;;;;;20863216;28;20033;-75
2021/04/27 22:33:37;;;;;;;10.30;4.80;;;7.80;99.90;;;;;;20837580;28;20037;-75
2021/04/27 22:43:38;;;;;;;7.37;4.70;;;7.80;99.90;;;;;;20820082;28;20091;-75
2021/04/27 22:53:39;;;;;;;11.43;5.63;;;7.70;99.90;;;;;;20838108;28;20087;-75
2021/04/27 23:03:40;;;;;;;8.50;4.93;;;7.60;99.90;;;;;;20837262;28;20042;-75
2021/04/27 23:13:41;;;;;;;11.73;5.60;;;7.60;99.90;;;;;;20834866;28;20541;-75
2021/04/27 23:23:42;;;;;;;8.23;4.90;;;7.20;99.90;;;;;;20834338;28;20303;-74
2021/04/27 23:33:42;;;;;;;9.17;5.30;;;7.00;99.90;;;;;;20833406;28;20029;-76
2021/04/27 23:43:43;;;;;;;8.07;4.93;;;7.20;99.90;;;;;;20834120;28;20452;-75
2021/04/27 23:53:44;;;;;;;9.80;5.20;;;7.40;99.90;;;;;;20816331;28;20059;-75
